»·PEaware :: N32FD KUDD-KEMT

N32FD :: KUDD-KEMT

FLIGHT INFORMATION

Flight Status: Arrived
Operator: Privately registered:
United States
More flights under this callsign
Pilot: Ryan B. (29)
Aircraft: AERMACCHI WARRIOR
(F260)
More flights by this aircraft type
Origin: KUDD Bermuda Dunes
United States
Destination: KEMT El Monte
United States
More flights between these airports :: More routes between these airports
Route: +PSP V388 PDZ PDZ270/013 RNDAL V363 POM
File this flight plan on PilotEdge
Remarks:
Altitude:
(Current/Filed)
10,000ft
Speed:
(Current/Filed)
165kts
Departed: 03-Nov-19 05:27 PM
Arrived: 03-Nov-19 06:05 PM
Distance/Time
Traveled:
90nm/0:38
Distance/Time
To Go:
Arrived

Flight Plot

Page will automatically refresh every two minutes.

Flight plan parsing failed; only flown route is shown


Map Options




Map Legend


Flown Route
Filed Route
Departure Airport
Arrival Airport
Navaid (VOR, NDB)
Fix

Horizontal Profiles

Position Reports

Time Latitude Longitude Heading Altitude Ground
Speed
03-Nov-19 16:18 33.744819 -116.269577 270 76ft 0kts
03-Nov-19 16:19 33.744819 -116.269577 270 76ft 0kts
03-Nov-19 16:20 33.744819 -116.269577 270 76ft 0kts
03-Nov-19 16:21 33.744819 -116.269577 270 76ft 0kts
03-Nov-19 16:22 33.744819 -116.269577 270 76ft 0kts
03-Nov-19 16:23 33.744819 -116.269577 270 76ft 0kts
03-Nov-19 16:24 33.744819 -116.269577 270 76ft 0kts
03-Nov-19 16:25 33.744819 -116.269577 270 76ft 0kts
03-Nov-19 16:26 33.744819 -116.269577 270 76ft 0kts
03-Nov-19 16:27 33.744819 -116.269577 270 76ft 0kts
03-Nov-19 16:28 33.744819 -116.269577 270 76ft 0kts
03-Nov-19 16:29 33.744819 -116.269577 270 76ft 0kts
03-Nov-19 16:30 33.744819 -116.269577 270 76ft 0kts
03-Nov-19 16:31 33.744819 -116.269577 270 76ft 0kts
03-Nov-19 16:32 33.744819 -116.269577 270 76ft 0kts
03-Nov-19 16:33 33.744819 -116.269577 270 76ft 0kts
03-Nov-19 16:34 33.744819 -116.269577 270 76ft 0kts
03-Nov-19 16:35 33.744819 -116.269577 270 76ft 0kts
03-Nov-19 16:36 33.744819 -116.269577 270 76ft 0kts
03-Nov-19 16:37 33.744819 -116.269577 270 76ft 0kts
03-Nov-19 16:38 33.744819 -116.269577 270 76ft 0kts
03-Nov-19 16:39 33.744819 -116.269577 270 76ft 0kts
03-Nov-19 16:40 33.744819 -116.269577 270 76ft 0kts
03-Nov-19 16:41 33.744819 -116.269577 270 76ft 0kts
03-Nov-19 16:42 33.744819 -116.269577 270 76ft 0kts
03-Nov-19 16:43 33.744819 -116.269577 270 76ft 0kts
03-Nov-19 16:44 33.744819 -116.269577 270 76ft 0kts
03-Nov-19 16:45 33.744819 -116.269577 270 76ft 0kts
03-Nov-19 16:46 33.744819 -116.269577 270 76ft 0kts
03-Nov-19 16:47 33.744819 -116.269577 270 76ft 0kts
03-Nov-19 16:48 33.744819 -116.269577 270 76ft 0kts
03-Nov-19 16:49 33.744819 -116.269577 270 76ft 0kts
03-Nov-19 16:50 33.744819 -116.269577 270 76ft 0kts
03-Nov-19 16:51 33.744819 -116.269577 270 76ft 0kts
03-Nov-19 16:52 33.744819 -116.269577 270 76ft 0kts
03-Nov-19 16:53 33.744819 -116.269577 270 76ft 0kts
03-Nov-19 16:54 33.744819 -116.269577 270 76ft 0kts
03-Nov-19 16:55 33.744819 -116.269577 270 76ft 0kts
03-Nov-19 16:56 33.744819 -116.269577 270 76ft 0kts
03-Nov-19 16:57 33.744819 -116.269577 270 76ft 0kts
03-Nov-19 16:58 33.744819 -116.269577 270 76ft 0kts
03-Nov-19 16:59 33.744819 -116.269577 270 76ft 0kts
03-Nov-19 17:00 33.744819 -116.269577 270 76ft 0kts
03-Nov-19 17:01 33.744819 -116.269577 270 76ft 0kts
03-Nov-19 17:02 33.744819 -116.269577 270 76ft 0kts
03-Nov-19 17:03 33.744819 -116.269577 270 76ft 0kts
03-Nov-19 17:04 33.744819 -116.269577 270 76ft 0kts
03-Nov-19 17:05 33.744819 -116.269577 270 76ft 0kts
03-Nov-19 17:06 33.744819 -116.269577 270 76ft 0kts
03-Nov-19 17:07 33.744819 -116.269577 270 76ft 0kts
03-Nov-19 17:08 33.744819 -116.269577 270 76ft 0kts
03-Nov-19 17:09 33.744819 -116.269577 269 76ft 0kts
03-Nov-19 17:10 33.744819 -116.269577 269 76ft 0kts
03-Nov-19 17:11 33.744819 -116.269577 269 76ft 0kts
03-Nov-19 17:12 33.744819 -116.269577 269 76ft 0kts
03-Nov-19 17:13 33.744819 -116.269577 269 76ft 0kts
03-Nov-19 17:14 33.744819 -116.269579 269 76ft 0kts
03-Nov-19 17:15 33.744819 -116.269579 269 76ft 0kts
03-Nov-19 17:16 33.744819 -116.269579 269 76ft 0kts
03-Nov-19 17:17 33.744819 -116.269579 269 76ft 0kts
03-Nov-19 17:18 33.744819 -116.269579 269 76ft 0kts
03-Nov-19 17:19 33.745360 -116.268595 115 76ft 19kts
03-Nov-19 17:20 33.744927 -116.267454 7 76ft 0kts
03-Nov-19 17:21 33.744928 -116.267454 10 76ft 0kts
03-Nov-19 17:22 33.744928 -116.267454 10 76ft 0kts
03-Nov-19 17:23 33.744928 -116.267454 10 76ft 0kts
03-Nov-19 17:24 33.744928 -116.267454 10 76ft 0kts
03-Nov-19 17:25 33.744928 -116.267454 12 76ft 0kts
03-Nov-19 17:26 33.746362 -116.269878 295 76ft 70kts
03-Nov-19 17:27 33.763604 -116.297627 319 1286ft 113kts
03-Nov-19 17:28 33.787221 -116.323728 316 2789ft 116kts
03-Nov-19 17:29 33.810006 -116.351589 312 4097ft 117kts
03-Nov-19 17:30 33.832703 -116.379919 314 5249ft 118kts
03-Nov-19 17:31 33.854589 -116.409708 314 6493ft 116kts
03-Nov-19 17:32 33.871954 -116.438937 285 7753ft 104kts
03-Nov-19 17:33 33.882246 -116.477288 288 8541ft 129kts
03-Nov-19 17:34 33.892453 -116.517870 285 9531ft 124kts
03-Nov-19 17:35 33.902680 -116.560037 287 10002ft 152kts
03-Nov-19 17:36 33.916011 -116.612406 287 9993ft 171kts
03-Nov-19 17:37 33.927040 -116.655978 286 9992ft 175kts
03-Nov-19 17:38 33.941345 -116.712604 286 9997ft 176kts
03-Nov-19 17:40 33.947582 -116.770778 267 9994ft 177kts
03-Nov-19 17:41 33.945280 -116.830235 267 10001ft 176kts
03-Nov-19 17:42 33.943012 -116.889326 267 10007ft 176kts
03-Nov-19 17:43 33.940894 -116.948581 267 10007ft 176kts
03-Nov-19 17:44 33.938804 -117.007764 267 10007ft 176kts
03-Nov-19 17:45 33.936694 -117.066756 267 10007ft 176kts
03-Nov-19 17:46 33.934226 -117.126321 266 9898ft 182kts
03-Nov-19 17:47 33.931409 -117.190274 267 9208ft 194kts
03-Nov-19 17:48 33.928809 -117.255495 267 8506ft 195kts
03-Nov-19 17:49 33.926204 -117.320747 267 7802ft 194kts
03-Nov-19 17:50 33.923625 -117.385522 268 7092ft 189kts
03-Nov-19 17:51 33.921099 -117.448480 268 6383ft 187kts
03-Nov-19 17:52 33.918784 -117.509924 268 5987ft 175kts
03-Nov-19 17:53 33.926095 -117.566112 285 5989ft 168kts
03-Nov-19 17:54 33.938106 -117.620510 286 5989ft 167kts
03-Nov-19 17:55 33.949824 -117.673246 285 5989ft 166kts
03-Nov-19 17:56 33.961706 -117.726821 285 5989ft 164kts
03-Nov-19 17:57 33.977489 -117.778120 301 5905ft 167kts
03-Nov-19 17:58 34.003942 -117.829190 301 5112ft 192kts
03-Nov-19 17:58 34.029757 -117.874652 306 4466ft 196kts
03-Nov-19 18:00 34.068714 -117.931721 306 3359ft 182kts
03-Nov-19 18:01 34.099361 -117.969040 314 2309ft 143kts
03-Nov-19 18:01 34.123040 -117.994235 308 1645ft 125kts
03-Nov-19 18:02 34.114476 -118.017871 212 1088ft 81kts
03-Nov-19 18:04 34.091120 -118.031938 207 331ft 74kts
03-Nov-19 18:04 34.085403 -118.034647 116 297ft 0kts
03-Nov-19 18:05 34.086490 -118.033582 89 297ft 11kts
03-Nov-19 18:06 34.086538 -118.033171 207 297ft 0kts

Navigation Log

Ident Type
Flight plan parsing failed, navigation log unavailable